Time;durP1;ratioP1;P1;durP2;ratioP2;P2;SDS_P1;SDS_P2;PMS_P1;PMS_P2;Temp;Humidity;BMP_temperature;BMP_pressure;BME280_temperature;BME280_humidity;BME280_pressure;Samples;Min_cycle;Max_cycle;Signal;HPM_P1;HPM_P2
2023/09/11 00:03:53;;;;;;;20.95;15.68;;;;;18.90;96430.00;;;;8312351;28;20233;-66
2023/09/11 00:07:59;;;;;;;21.45;15.75;;;;;18.90;96428.00;;;;8312657;28;20213;-65
2023/09/11 00:12:02;;;;;;;25.60;18.17;;;;;18.80;96437.00;;;;8311654;28;20640;-65
2023/09/11 00:16:05;;;;;;;27.20;17.33;;;;;18.80;96431.00;;;;8315411;28;20276;-65
2023/09/11 00:20:09;;;;;;;18.88;15.18;;;;;18.70;96430.00;;;;8313503;28;20197;-65
2023/09/11 00:24:14;;;;;;;24.25;17.58;;;;;18.60;96422.00;;;;8314638;28;20201;-65
2023/09/11 00:28:18;;;;;;;25.02;16.40;;;;;18.60;96421.00;;;;8302008;28;20232;-66
2023/09/11 00:32:21;;;;;;;23.58;15.50;;;;;18.50;96414.00;;;;8314677;28;20229;-66
2023/09/11 00:36:24;;;;;;;22.52;16.02;;;;;18.40;96414.00;;;;8314981;28;20663;-65
2023/09/11 00:40:31;;;;;;;22.33;16.00;;;;;18.40;96415.00;;;;8315585;28;20362;-65
2023/09/11 00:44:34;;;;;;;25.13;17.85;;;;;18.30;96410.00;;;;8297166;28;20751;-65
2023/09/11 00:48:40;;;;;;;25.17;17.17;;;;;18.20;96408.00;;;;8312169;28;20212;-65
2023/09/11 00:52:47;;;;;;;24.63;17.15;;;;;18.20;96413.00;;;;8311584;28;20293;-65
2023/09/11 00:56:52;;;;;;;23.13;15.77;;;;;18.10;96406.00;;;;8314887;28;20303;-65
2023/09/11 01:00:57;;;;;;;25.33;17.10;;;;;18.20;96396.00;;;;8314298;28;20212;-65
2023/09/11 01:05:01;;;;;;;25.58;17.02;;;;;18.20;96398.00;;;;8311722;28;20279;-65
2023/09/11 01:09:05;;;;;;;23.38;17.13;;;;;18.20;96396.00;;;;8315251;28;20227;-66
2023/09/11 01:13:10;;;;;;;23.05;16.15;;;;;18.10;96396.00;;;;8314427;28;20284;-65
2023/09/11 01:17:18;;;;;;;24.02;16.92;;;;;18.00;96392.00;;;;8295516;28;20229;-65
2023/09/11 01:21:54;;;;;;;21.40;16.52;;;;;18.00;96392.00;;;;8314939;28;20193;-66
2023/09/11 01:26:17;;;;;;;23.65;15.95;;;;;18.00;96395.00;;;;8300536;28;20260;-65
2023/09/11 01:30:26;;;;;;;24.33;16.85;;;;;17.90;96389.00;;;;8314527;28;20239;-65
2023/09/11 01:34:29;;;;;;;24.13;16.92;;;;;17.90;96388.00;;;;8294528;28;20206;-66
2023/09/11 01:38:34;;;;;;;19.67;15.43;;;;;17.80;96380.00;;;;8299425;28;20260;-65
2023/09/11 01:42:44;;;;;;;25.58;18.27;;;;;17.80;96387.00;;;;8314433;28;20729;-66
2023/09/11 01:46:49;;;;;;;30.13;19.10;;;;;17.80;96384.00;;;;8313705;28;20216;-65
2023/09/11 01:50:53;;;;;;;27.20;18.08;;;;;17.70;96375.00;;;;8318206;28;20953;-65
2023/09/11 01:54:57;;;;;;;23.80;15.65;;;;;17.70;96378.00;;;;8318975;28;20197;-65
2023/09/11 01:59:01;;;;;;;24.05;17.42;;;;;17.50;96374.00;;;;8319400;28;20237;-65
2023/09/11 02:03:06;;;;;;;26.27;17.27;;;;;17.50;96373.00;;;;8320248;28;20312;-65
2023/09/11 02:07:10;;;;;;;28.13;17.42;;;;;17.40;96379.00;;;;8317634;28;20757;-65
2023/09/11 02:11:13;;;;;;;30.98;18.80;;;;;17.30;96378.00;;;;8316440;28;20233;-65
2023/09/11 02:15:16;;;;;;;29.55;18.65;;;;;17.20;96366.00;;;;8318556;28;20197;-65
2023/09/11 02:19:22;;;;;;;29.83;17.63;;;;;17.20;96366.00;;;;8319608;28;20328;-65
2023/09/11 02:23:25;;;;;;;29.23;18.50;;;;;17.10;96372.00;;;;8318608;28;20190;-65
2023/09/11 02:27:28;;;;;;;35.03;20.38;;;;;17.10;96372.00;;;;8319596;28;20367;-64
2023/09/11 02:31:32;;;;;;;29.27;19.23;;;;;17.10;96370.00;;;;8319813;28;20539;-65
2023/09/11 02:35:37;;;;;;;29.40;19.05;;;;;17.10;96369.00;;;;8319581;28;20284;-65
2023/09/11 02:39:43;;;;;;;26.90;17.23;;;;;17.10;96370.00;;;;8318273;28;20225;-65
2023/09/11 02:43:49;;;;;;;59.33;20.65;;;;;17.10;96372.00;;;;8318757;28;20570;-65
2023/09/11 02:47:53;;;;;;;32.42;21.00;;;;;17.10;96365.00;;;;8316252;28;20236;-65
2023/09/11 02:51:59;;;;;;;32.15;20.58;;;;;17.00;96358.00;;;;8301030;28;20682;-65
2023/09/11 02:56:04;;;;;;;30.90;18.92;;;;;16.90;96357.00;;;;8300941;28;20221;-66
2023/09/11 03:04:28;;;;;;;37.38;21.38;;;;;16.70;96363.00;;;;8307277;23;20237;-65
2023/09/11 03:08:32;;;;;;;33.63;21.17;;;;;16.80;96358.00;;;;8285922;28;20210;-66
2023/09/11 03:12:35;;;;;;;29.00;18.75;;;;;16.70;96355.00;;;;8286608;28;20272;-65
2023/09/11 03:16:43;;;;;;;123.00;21.33;;;;;16.70;96344.00;;;;8286979;28;20313;-65
2023/09/11 03:20:57;;;;;;;36.97;20.55;;;;;16.60;96344.00;;;;8300470;28;20221;-65
2023/09/11 03:25:07;;;;;;;33.25;20.30;;;;;16.60;96342.00;;;;8298346;28;20210;-65
2023/09/11 03:29:10;;;;;;;33.83;21.65;;;;;16.60;96347.00;;;;8290647;28;20642;-65
2023/09/11 03:33:13;;;;;;;41.75;23.17;;;;;16.60;96342.00;;;;8288598;28;20655;-66
2023/09/11 03:37:16;;;;;;;39.90;23.60;;;;;16.60;96348.00;;;;8300431;28;20248;-65
2023/09/11 03:41:27;;;;;;;35.65;21.48;;;;;16.60;96355.00;;;;8298563;28;20312;-65
2023/09/11 03:45:30;;;;;;;37.85;22.80;;;;;16.60;96360.00;;;;8284627;28;20238;-65
2023/09/11 03:49:38;;;;;;;29.13;17.88;;;;;16.50;96351.00;;;;8284488;28;20285;-66
2023/09/11 03:53:44;;;;;;;30.85;20.13;;;;;16.50;96356.00;;;;8284483;28;20297;-65
2023/09/11 03:57:52;;;;;;;34.03;20.77;;;;;16.50;96349.00;;;;8284965;28;20234;-65
2023/09/11 04:01:55;;;;;;;64.35;20.98;;;;;16.40;96350.00;;;;8286369;28;20203;-65
2023/09/11 04:06:00;;;;;;;42.33;22.80;;;;;16.40;96352.00;;;;8313293;28;20227;-65
2023/09/11 04:10:04;;;;;;;45.55;24.35;;;;;16.30;96346.00;;;;8315933;28;20223;-65
2023/09/11 04:14:13;;;;;;;51.28;25.55;;;;;16.30;96344.00;;;;8314570;28;20198;-66
2023/09/11 04:18:16;;;;;;;36.90;23.20;;;;;16.30;96347.00;;;;8316444;28;20286;-65
2023/09/11 04:22:21;;;;;;;44.63;23.30;;;;;16.30;96349.00;;;;8315600;28;20210;-65
2023/09/11 04:26:24;;;;;;;43.78;22.50;;;;;16.20;96347.00;;;;8315312;28;20197;-65
2023/09/11 04:30:29;;;;;;;36.63;21.50;;;;;16.20;96348.00;;;;8316114;28;20229;-65
2023/09/11 04:34:35;;;;;;;35.92;21.95;;;;;16.20;96347.00;;;;8315354;28;20201;-65
2023/09/11 04:38:38;;;;;;;42.25;21.65;;;;;16.20;96347.00;;;;8315752;28;20225;-65
2023/09/11 04:42:45;;;;;;;41.97;20.58;;;;;16.20;96349.00;;;;8314157;28;20224;-65
2023/09/11 04:46:52;;;;;;;42.47;21.58;;;;;16.20;96356.00;;;;8314950;28;20198;-65
2023/09/11 04:50:58;;;;;;;39.38;23.15;;;;;16.20;96356.00;;;;8313389;28;20201;-65
2023/09/11 04:55:02;;;;;;;38.40;23.00;;;;;16.20;96353.00;;;;8314058;28;20201;-65
2023/09/11 04:59:05;;;;;;;40.28;24.27;;;;;16.20;96356.00;;;;8315135;28;20782;-65
2023/09/11 05:03:15;;;;;;;40.13;22.50;;;;;16.20;96358.00;;;;8313385;28;20217;-65
2023/09/11 05:07:19;;;;;;;43.13;22.42;;;;;16.30;96358.00;;;;8310509;28;20200;-65
2023/09/11 05:11:22;;;;;;;38.00;23.08;;;;;16.40;96356.00;;;;8300913;28;21003;-65
2023/09/11 05:15:25;;;;;;;33.78;21.85;;;;;16.60;96351.00;;;;8288934;28;20202;-64
2023/09/11 05:19:34;;;;;;;38.05;21.27;;;;;16.70;96355.00;;;;8310078;28;20312;-65
2023/09/11 05:23:42;;;;;;;51.88;26.83;;;;;16.90;96358.00;;;;8307469;28;20213;-65
2023/09/11 05:27:48;;;;;;;45.50;25.27;;;;;17.10;96360.00;;;;8313394;28;20209;-64
2023/09/11 05:31:54;;;;;;;43.47;23.65;;;;;17.30;96366.00;;;;8319627;28;20289;-64
2023/09/11 05:35:59;;;;;;;30.98;20.67;;;;;17.40;96358.00;;;;8318971;28;20200;-64
2023/09/11 05:40:14;;;;;;;37.00;22.25;;;;;17.50;96362.00;;;;8318710;28;20217;-65
2023/09/11 05:44:21;;;;;;;25.77;18.65;;;;;17.60;96364.00;;;;8316170;28;20297;-65
2023/09/11 05:48:24;;;;;;;30.08;19.42;;;;;17.80;96366.00;;;;8309832;28;20209;-64
2023/09/11 05:52:32;;;;;;;30.80;19.30;;;;;17.90;96367.00;;;;8307771;28;20211;-64
2023/09/11 05:56:36;;;;;;;27.35;18.45;;;;;18.10;96377.00;;;;8314760;28;20252;-65
2023/09/11 06:00:40;;;;;;;23.17;16.85;;;;;18.20;96370.00;;;;8314110;28;20225;-65
2023/09/11 06:04:47;;;;;;;25.80;17.48;;;;;18.40;96374.00;;;;8311489;28;20237;-65
2023/09/11 06:08:51;;;;;;;25.48;17.00;;;;;18.60;96375.00;;;;8308491;28;20288;-65
2023/09/11 06:12:54;;;;;;;25.35;17.85;;;;;18.70;96369.00;;;;8310015;28;20201;-66
2023/09/11 06:17:03;;;;;;;24.05;16.85;;;;;18.80;96372.00;;;;8308822;28;20197;-65
2023/09/11 06:21:07;;;;;;;23.38;17.45;;;;;18.80;96367.00;;;;8315996;28;20879;-65
2023/09/11 06:25:15;;;;;;;26.05;19.52;;;;;18.90;96374.00;;;;8312010;28;20201;-65
2023/09/11 06:29:25;;;;;;;36.45;23.27;;;;;19.10;96375.00;;;;8317535;28;20198;-65
2023/09/11 06:33:28;;;;;;;25.63;19.08;;;;;19.30;96382.00;;;;8299358;28;20237;-65
2023/09/11 06:37:31;;;;;;;23.25;17.30;;;;;19.50;96370.00;;;;8312409;28;20204;-65
2023/09/11 06:41:38;;;;;;;37.15;24.58;;;;;19.60;96373.00;;;;8317425;28;20909;-65
2023/09/11 06:45:43;;;;;;;32.80;20.95;;;;;19.80;96374.00;;;;8310305;28;20220;-64
2023/09/11 06:49:49;;;;;;;36.15;23.17;;;;;20.00;96374.00;;;;8315493;28;20276;-65
2023/09/11 06:53:53;;;;;;;32.35;23.15;;;;;20.30;96367.00;;;;8316570;28;20706;-64
2023/09/11 06:58:01;;;;;;;29.75;21.27;;;;;20.60;96372.00;;;;8316864;28;20630;-64
2023/09/11 07:02:07;;;;;;;36.05;23.23;;;;;20.90;96372.00;;;;8316009;28;20229;-64
2023/09/11 07:06:10;;;;;;;33.63;21.35;;;;;21.20;96371.00;;;;8314377;28;20209;-65
2023/09/11 07:10:15;;;;;;;33.60;20.45;;;;;21.50;96367.00;;;;8305675;28;20237;-65
2023/09/11 07:14:28;;;;;;;27.13;19.65;;;;;21.80;96367.00;;;;8316323;28;20198;-65
2023/09/11 07:18:32;;;;;;;27.83;19.05;;;;;22.10;96368.00;;;;8312614;28;20197;-65
2023/09/11 07:22:38;;;;;;;26.70;18.58;;;;;22.40;96365.00;;;;8310938;28;20233;-65
2023/09/11 07:26:41;;;;;;;26.48;17.48;;;;;22.80;96371.00;;;;8311075;28;20208;-65
2023/09/11 07:30:49;;;;;;;28.40;17.00;;;;;23.00;96365.00;;;;8310337;28;20205;-65
2023/09/11 07:34:52;;;;;;;21.20;15.93;;;;;23.30;96373.00;;;;8314817;28;20212;-65
2023/09/11 07:38:58;;;;;;;22.45;15.43;;;;;23.60;96367.00;;;;8313727;28;20206;-64
2023/09/11 07:43:01;;;;;;;17.55;14.77;;;;;23.90;96376.00;;;;8313509;28;20209;-65
2023/09/11 07:47:07;;;;;;;22.55;15.38;;;;;24.30;96377.00;;;;8313869;28;20208;-65
2023/09/11 07:51:12;;;;;;;19.40;14.15;;;;;24.60;96373.00;;;;8311451;28;20205;-65
2023/09/11 07:55:15;;;;;;;22.08;14.65;;;;;25.00;96371.00;;;;8314557;28;20204;-65
2023/09/11 07:59:22;;;;;;;17.65;12.55;;;;;25.50;96375.00;;;;8313393;28;20275;-65
2023/09/11 08:03:26;;;;;;;19.02;13.77;;;;;25.90;96369.00;;;;8290117;28;20228;-66
2023/09/11 08:07:30;;;;;;;18.85;12.18;;;;;26.30;96359.00;;;;8313580;28;20193;-66
2023/09/11 08:11:37;;;;;;;16.70;12.27;;;;;26.90;96359.00;;;;8312617;28;20197;-66
2023/09/11 08:15:43;;;;;;;18.45;11.57;;;;;27.20;96368.00;;;;8291529;28;20228;-66
2023/09/11 08:19:53;;;;;;;14.07;11.32;;;;;27.60;96366.00;;;;8308999;28;20221;-66
2023/09/11 08:23:58;;;;;;;16.20;11.32;;;;;27.90;96371.00;;;;8308689;28;20198;-66
2023/09/11 08:28:01;;;;;;;15.80;12.18;;;;;28.50;96366.00;;;;8305816;28;20197;-67
2023/09/11 08:32:05;;;;;;;15.55;10.77;;;;;29.30;96372.00;;;;8302236;28;20288;-67
2023/09/11 08:36:10;;;;;;;12.65;10.80;;;;;30.10;96373.00;;;;8308449;28;20208;-66
2023/09/11 08:40:17;;;;;;;14.52;11.10;;;;;30.80;96373.00;;;;8305724;28;20239;-66
2023/09/11 08:44:23;;;;;;;13.32;11.30;;;;;31.40;96371.00;;;;8301554;28;20265;-66
2023/09/11 08:48:30;;;;;;;12.18;10.52;;;;;31.60;96377.00;;;;8305555;28;20380;-66
2023/09/11 08:52:47;;;;;;;13.45;10.85;;;;;31.80;96372.00;;;;8303883;28;20210;-66
2023/09/11 08:56:52;;;;;;;12.68;10.30;;;;;32.30;96367.00;;;;8304865;28;20198;-67
2023/09/11 09:01:02;;;;;;;14.77;10.32;;;;;32.60;96361.00;;;;8302850;28;20225;-66
2023/09/11 09:05:07;;;;;;;11.70;10.18;;;;;32.80;96365.00;;;;8299792;28;20235;-66
2023/09/11 09:09:11;;;;;;;14.25;9.50;;;;;33.10;96358.00;;;;8305006;28;20214;-66
2023/09/11 09:13:17;;;;;;;11.90;9.23;;;;;33.30;96362.00;;;;8297488;28;20208;-66
2023/09/11 09:17:20;;;;;;;15.13;8.70;;;;;33.70;96355.00;;;;8307529;28;20878;-66
2023/09/11 09:21:25;;;;;;;9.55;8.65;;;;;34.10;96358.00;;;;8300594;28;20260;-66
2023/09/11 09:25:39;;;;;;;10.93;8.30;;;;;34.10;96356.00;;;;8305835;28;20924;-66
2023/09/11 09:29:48;;;;;;;13.10;8.05;;;;;34.30;96355.00;;;;8307187;28;20224;-66
2023/09/11 09:33:55;;;;;;;11.57;7.80;;;;;34.30;96354.00;;;;8285302;28;20644;-66
2023/09/11 09:38:01;;;;;;;10.95;7.80;;;;;34.40;96350.00;;;;8304628;28;20842;-67
2023/09/11 09:42:07;;;;;;;11.75;8.57;;;;;34.70;96352.00;;;;8301243;28;20225;-67
2023/09/11 09:46:21;;;;;;;8.80;7.40;;;;;34.70;96348.00;;;;8305277;28;20210;-67
2023/09/11 09:50:25;;;;;;;9.13;7.07;;;;;34.70;96341.00;;;;8309274;28;20524;-67
2023/09/11 09:54:42;;;;;;;7.72;7.00;;;;;35.00;96336.00;;;;8290411;28;20197;-67
2023/09/11 09:58:51;;;;;;;7.80;7.00;;;;;35.30;96335.00;;;;8304136;28;20188;-67
2023/09/11 10:02:57;;;;;;;6.57;5.90;;;;;35.30;96336.00;;;;8302933;28;20673;-67
2023/09/11 10:07:01;;;;;;;10.05;6.40;;;;;35.50;96327.00;;;;8301521;28;20411;-67
2023/09/11 10:11:04;;;;;;;7.47;6.65;;;;;35.70;96315.00;;;;8306576;28;20213;-67
2023/09/11 10:15:12;;;;;;;7.25;6.53;;;;;35.80;96319.00;;;;8307857;28;20790;-67
2023/09/11 10:19:16;;;;;;;11.60;7.15;;;;;35.80;96312.00;;;;8306017;28;20212;-67
2023/09/11 10:23:25;;;;;;;7.63;6.53;;;;;35.80;96320.00;;;;8309921;28;20251;-67
2023/09/11 10:27:28;;;;;;;9.43;6.50;;;;;35.60;96317.00;;;;8305028;28;20750;-67
2023/09/11 10:31:36;;;;;;;11.75;6.78;;;;;35.70;96308.00;;;;8309600;28;20293;-67
2023/09/11 10:35:41;;;;;;;9.25;7.18;;;;;35.80;96309.00;;;;8303846;28;20292;-67
2023/09/11 10:39:45;;;;;;;9.55;6.15;;;;;35.80;96309.00;;;;8309104;28;20228;-67
2023/09/11 10:43:48;;;;;;;8.85;6.32;;;;;35.70;96293.00;;;;8307929;28;20225;-67
2023/09/11 10:47:53;;;;;;;8.13;6.85;;;;;35.70;96295.00;;;;8304427;28;20284;-67
2023/09/11 10:51:59;;;;;;;9.90;6.75;;;;;35.70;96296.00;;;;8304785;28;20197;-67
2023/09/11 10:56:04;;;;;;;7.28;6.57;;;;;35.50;96290.00;;;;8301030;28;20189;-67
2023/09/11 11:00:13;;;;;;;7.50;6.75;;;;;35.30;96284.00;;;;8307210;28;20202;-67
2023/09/11 11:04:19;;;;;;;7.35;6.53;;;;;35.30;96290.00;;;;8307863;28;20867;-67
2023/09/11 11:08:23;;;;;;;7.70;6.35;;;;;35.30;96279.00;;;;8303588;28;20199;-67
2023/09/11 11:12:32;;;;;;;7.45;6.60;;;;;35.30;96274.00;;;;8299137;28;20657;-66
2023/09/11 11:16:37;;;;;;;8.30;7.07;;;;;35.10;96272.00;;;;8309401;28;20647;-67
2023/09/11 11:21:06;;;;;;;7.25;6.55;;;;;35.00;96278.00;;;;8303883;28;20775;-67
2023/09/11 11:25:11;;;;;;;7.15;6.45;;;;;35.10;96274.00;;;;8290484;28;20368;-67
2023/09/11 11:29:16;;;;;;;9.65;6.50;;;;;35.10;96273.00;;;;8311280;28;20670;-67
2023/09/11 11:33:26;;;;;;;7.85;6.38;;;;;35.30;96264.00;;;;8302011;28;20202;-67
2023/09/11 11:37:36;;;;;;;12.82;7.20;;;;;35.30;96252.00;;;;8309094;28;20202;-67
2023/09/11 11:41:40;;;;;;;7.43;6.70;;;;;35.60;96266.00;;;;8290651;28;20324;-67
2023/09/11 11:45:47;;;;;;;13.07;6.38;;;;;36.00;96267.00;;;;8307017;28;20292;-67
2023/09/11 11:49:53;;;;;;;7.32;5.93;;;;;36.10;96263.00;;;;8305949;28;20284;-67
2023/09/11 11:53:58;;;;;;;6.75;6.10;;;;;35.80;96261.00;;;;8302220;28;20205;-67
2023/09/11 11:58:08;;;;;;;7.25;6.35;;;;;35.50;96265.00;;;;8307887;28;20201;-67
2023/09/11 12:02:29;;;;;;;11.10;6.18;;;;;35.30;96263.00;;;;8301825;28;20233;-67
2023/09/11 12:06:33;;;;;;;7.00;6.40;;;;;35.10;96262.00;;;;8308019;28;20198;-67
2023/09/11 12:10:45;;;;;;;8.25;6.50;;;;;35.00;96262.00;;;;8304530;28;20233;-67
2023/09/11 12:14:53;;;;;;;8.95;6.30;;;;;34.80;96265.00;;;;8302022;28;20208;-67
2023/09/11 12:18:58;;;;;;;8.98;5.85;;;;;34.50;96265.00;;;;8306992;28;20630;-67
2023/09/11 12:23:06;;;;;;;9.05;6.85;;;;;34.40;96265.00;;;;8293976;28;20217;-67
2023/09/11 12:27:15;;;;;;;9.45;7.00;;;;;34.20;96259.00;;;;8303716;28;20220;-67
2023/09/11 12:31:19;;;;;;;7.22;6.47;;;;;34.00;96260.00;;;;8304987;28;20198;-67
2023/09/11 12:35:35;;;;;;;8.80;7.07;;;;;34.00;96252.00;;;;8297564;28;20253;-67
2023/09/11 12:39:38;;;;;;;8.95;6.97;;;;;33.90;96251.00;;;;8300560;28;20264;-67
2023/09/11 12:43:43;;;;;;;9.13;7.22;;;;;33.70;96252.00;;;;8300856;28;20257;-67
2023/09/11 12:47:46;;;;;;;10.48;7.00;;;;;33.60;96244.00;;;;8301738;28;20866;-67
2023/09/11 12:51:54;;;;;;;8.32;7.43;;;;;33.60;96235.00;;;;8294201;28;20260;-67
2023/09/11 12:56:01;;;;;;;9.02;8.13;;;;;33.50;96234.00;;;;8297257;28;20201;-67
2023/09/11 13:00:10;;;;;;;11.15;7.75;;;;;33.40;96239.00;;;;8308101;28;20201;-67
2023/09/11 13:04:14;;;;;;;9.02;7.22;;;;;33.40;96241.00;;;;8302914;28;20251;-67
2023/09/11 13:08:20;;;;;;;8.38;6.65;;;;;33.40;96238.00;;;;8302021;28;20292;-67
2023/09/11 13:12:24;;;;;;;9.95;6.78;;;;;33.30;96232.00;;;;8306426;28;20198;-67
2023/09/11 13:16:29;;;;;;;8.85;7.45;;;;;33.50;96221.00;;;;8306591;28;20202;-67
2023/09/11 13:20:35;;;;;;;8.98;6.90;;;;;33.70;96222.00;;;;8299092;28;20198;-67
2023/09/11 13:24:38;;;;;;;12.00;7.75;;;;;33.70;96234.00;;;;8287676;28;20319;-67
2023/09/11 13:28:41;;;;;;;10.77;7.43;;;;;33.70;96227.00;;;;8307662;28;20288;-67
2023/09/11 13:32:48;;;;;;;9.55;7.05;;;;;33.60;96217.00;;;;8294176;28;20214;-68
2023/09/11 13:36:59;;;;;;;13.57;7.18;;;;;33.50;96215.00;;;;8289569;28;20201;-67
2023/09/11 13:41:05;;;;;;;8.15;6.97;;;;;33.40;96211.00;;;;8308704;28;20429;-68
2023/09/11 13:45:13;;;;;;;10.82;6.88;;;;;33.50;96207.00;;;;8301667;28;20224;-67
2023/09/11 13:49:23;;;;;;;12.75;7.07;;;;;33.80;96204.00;;;;8302582;28;20260;-68
2023/09/11 13:53:28;;;;;;;9.23;6.68;;;;;34.20;96198.00;;;;8303207;28;20202;-67
2023/09/11 13:57:31;;;;;;;6.93;6.32;;;;;34.70;96202.00;;;;8312051;28;20220;-67
2023/09/11 14:01:34;;;;;;;7.93;6.43;;;;;35.20;96199.00;;;;8315969;28;20225;-68
2023/09/11 14:05:40;;;;;;;10.05;6.43;;;;;35.40;96188.00;;;;8316766;28;21675;-67
2023/09/11 14:09:49;;;;;;;7.57;6.05;;;;;35.50;96177.00;;;;8316276;28;20209;-68
2023/09/11 14:13:52;;;;;;;8.57;6.93;;;;;35.50;96187.00;;;;8316661;28;20212;-68
2023/09/11 14:17:56;;;;;;;7.22;6.03;;;;;35.50;96193.00;;;;8318117;28;20286;-68
2023/09/11 14:22:01;;;;;;;7.40;6.68;;;;;35.60;96179.00;;;;8317822;28;20283;-68
2023/09/11 14:26:07;;;;;;;6.95;6.20;;;;;35.50;96178.00;;;;8318845;28;20232;-68
2023/09/11 14:30:11;;;;;;;11.32;6.18;;;;;35.40;96175.00;;;;8317506;28;20974;-68
2023/09/11 14:34:15;;;;;;;6.32;5.75;;;;;35.00;96172.00;;;;8305492;28;20237;-68
2023/09/11 14:38:21;;;;;;;6.88;6.20;;;;;35.10;96174.00;;;;8316625;28;20292;-68
2023/09/11 14:42:24;;;;;;;7.60;6.07;;;;;35.20;96166.00;;;;8316110;28;20247;-67
2023/09/11 14:46:27;;;;;;;9.05;5.82;;;;;35.20;96162.00;;;;8318403;28;20666;-68
2023/09/11 14:50:30;;;;;;;6.28;5.68;;;;;35.30;96156.00;;;;8318844;28;20198;-68
2023/09/11 14:54:35;;;;;;;7.25;6.55;;;;;35.50;96154.00;;;;8316183;28;20198;-68
2023/09/11 14:58:57;;;;;;;6.38;5.88;;;;;35.50;96154.00;;;;8316363;28;20213;-68
2023/09/11 15:03:04;;;;;;;7.78;6.00;;;;;35.60;96152.00;;;;8317616;28;20236;-68
2023/09/11 15:07:07;;;;;;;6.78;6.13;;;;;35.70;96159.00;;;;8315085;28;20885;-68
2023/09/11 15:11:11;;;;;;;6.80;6.03;;;;;35.50;96155.00;;;;8315322;28;20212;-68
2023/09/11 15:15:17;;;;;;;6.90;6.25;;;;;35.40;96157.00;;;;8315987;28;20932;-67
2023/09/11 15:19:21;;;;;;;7.03;5.95;;;;;35.30;96153.00;;;;8312539;28;20213;-68
2023/09/11 15:23:24;;;;;;;6.75;6.07;;;;;35.10;96153.00;;;;8314985;28;20228;-68
2023/09/11 15:27:29;;;;;;;7.22;6.20;;;;;34.70;96149.00;;;;8300130;28;20229;-68
2023/09/11 15:31:33;;;;;;;8.45;6.45;;;;;34.70;96144.00;;;;8317231;28;20201;-68
2023/09/11 15:36:06;;;;;;;8.95;6.40;;;;;34.80;96142.00;;;;8317818;28;20559;-68
2023/09/11 15:40:10;;;;;;;6.07;5.47;;;;;34.80;96138.00;;;;8317267;28;20606;-68
2023/09/11 15:44:15;;;;;;;6.90;6.18;;;;;34.80;96131.00;;;;8316226;28;20236;-68
2023/09/11 15:48:21;;;;;;;6.93;6.00;;;;;34.90;96135.00;;;;8317492;28;20272;-68
2023/09/11 15:52:25;;;;;;;8.27;5.53;;;;;34.80;96134.00;;;;8316544;28;20205;-68
2023/09/11 15:56:28;;;;;;;6.68;6.00;;;;;34.80;96134.00;;;;8316887;28;20194;-68
2023/09/11 16:00:33;;;;;;;6.80;6.20;;;;;34.70;96131.00;;;;8315913;28;20209;-68
2023/09/11 16:04:36;;;;;;;8.32;5.72;;;;;34.60;96139.00;;;;8312842;28;20316;-68
2023/09/11 16:08:42;;;;;;;8.85;6.47;;;;;34.70;96137.00;;;;8316631;28;20201;-68
2023/09/11 16:12:45;;;;;;;6.75;5.70;;;;;35.00;96138.00;;;;8315699;28;20226;-68
2023/09/11 16:16:50;;;;;;;7.43;6.28;;;;;35.10;96139.00;;;;8315630;28;20228;-68
2023/09/11 16:20:55;;;;;;;16.80;5.78;;;;;34.90;96135.00;;;;8302753;28;20202;-69
2023/09/11 16:24:59;;;;;;;11.85;9.55;;;;;34.80;96135.00;;;;8305721;28;20230;-68
2023/09/11 16:29:02;;;;;;;8.50;5.95;;;;;34.70;96138.00;;;;8306960;28;20197;-68
2023/09/11 16:33:09;;;;;;;7.03;5.43;;;;;34.50;96134.00;;;;8314904;28;20233;-67
2023/09/11 16:37:15;;;;;;;6.82;6.07;;;;;34.00;96133.00;;;;8312320;28;20248;-68
2023/09/11 16:41:18;;;;;;;7.15;6.20;;;;;33.30;96134.00;;;;8305851;28;20233;-67
2023/09/11 16:45:22;;;;;;;6.60;6.00;;;;;32.60;96131.00;;;;8310870;28;20219;-67
2023/09/11 16:49:26;;;;;;;12.05;6.70;;;;;32.00;96128.00;;;;8314620;28;20886;-67
2023/09/11 16:53:30;;;;;;;8.68;6.47;;;;;31.20;96139.00;;;;8316001;28;20575;-67
2023/09/11 16:57:37;;;;;;;7.88;6.00;;;;;30.40;96131.00;;;;8314376;28;20193;-67
2023/09/11 17:01:41;;;;;;;7.93;6.32;;;;;29.70;96130.00;;;;8313571;28;20304;-67
2023/09/11 17:05:45;;;;;;;8.52;7.05;;;;;29.10;96136.00;;;;8315026;28;20663;-67
2023/09/11 17:09:49;;;;;;;12.98;7.10;;;;;28.50;96137.00;;;;8309249;28;20199;-68
2023/09/11 17:13:55;;;;;;;7.50;6.80;;;;;28.10;96133.00;;;;8294088;28;20225;-67
2023/09/11 17:17:59;;;;;;;8.38;6.15;;;;;27.60;96136.00;;;;8308036;28;20204;-68
2023/09/11 17:22:09;;;;;;;10.95;7.43;;;;;27.10;96133.00;;;;8314308;28;20207;-68
2023/09/11 17:26:17;;;;;;;7.90;7.10;;;;;26.70;96134.00;;;;8316864;28;20201;-67
2023/09/11 17:30:22;;;;;;;10.90;6.93;;;;;26.30;96130.00;;;;8316753;28;20205;-67
2023/09/11 17:34:27;;;;;;;9.77;7.22;;;;;25.80;96134.00;;;;8314146;28;20225;-67
2023/09/11 17:38:33;;;;;;;8.35;7.47;;;;;25.40;96134.00;;;;8301283;28;20194;-67
2023/09/11 17:42:41;;;;;;;10.88;7.57;;;;;25.20;96138.00;;;;8311378;28;20198;-66
2023/09/11 17:46:46;;;;;;;12.43;7.35;;;;;25.20;96141.00;;;;8318690;28;20613;-64
2023/09/11 17:50:54;;;;;;;10.48;7.88;;;;;25.10;96136.00;;;;8315047;28;20288;-66
2023/09/11 17:54:58;;;;;;;13.10;7.68;;;;;24.90;96135.00;;;;8312586;28;20257;-67
2023/09/11 17:59:02;;;;;;;9.13;7.25;;;;;24.70;96135.00;;;;8300057;28;20209;-66
2023/09/11 18:03:06;;;;;;;15.63;8.90;;;;;24.40;96139.00;;;;8317165;28;20324;-66
2023/09/11 18:07:10;;;;;;;13.20;7.75;;;;;24.20;96152.00;;;;8311975;28;20292;-67
2023/09/11 18:11:14;;;;;;;12.73;8.20;;;;;24.00;96155.00;;;;8318105;28;20292;-67
2023/09/11 18:15:24;;;;;;;14.75;8.50;;;;;23.90;96155.00;;;;8316117;28;20227;-66
2023/09/11 18:19:27;;;;;;;16.35;8.25;;;;;23.70;96154.00;;;;8313951;28;20285;-67
2023/09/11 18:23:30;;;;;;;13.48;8.55;;;;;23.50;96152.00;;;;8317433;28;20284;-68
2023/09/11 18:27:35;;;;;;;12.90;7.93;;;;;23.30;96160.00;;;;8318415;28;20198;-68
2023/09/11 18:31:39;;;;;;;14.18;8.55;;;;;23.10;96161.00;;;;8308679;28;20201;-68
2023/09/11 18:35:45;;;;;;;10.68;8.60;;;;;22.90;96163.00;;;;8318190;28;20235;-68
2023/09/11 18:39:52;;;;;;;14.32;8.68;;;;;22.80;96167.00;;;;8316094;28;20201;-67
2023/09/11 18:43:59;;;;;;;10.90;8.38;;;;;22.60;96171.00;;;;8312594;28;20210;-67
2023/09/11 18:48:11;;;;;;;19.50;8.70;;;;;22.50;96171.00;;;;8315175;28;20229;-67
2023/09/11 18:52:19;;;;;;;14.65;9.00;;;;;22.30;96180.00;;;;8307212;28;20293;-67
2023/09/11 18:56:24;;;;;;;12.38;9.00;;;;;22.20;96178.00;;;;8310662;28;20228;-67
2023/09/11 19:00:29;;;;;;;17.35;9.63;;;;;22.10;96175.00;;;;8316610;28;20198;-67
2023/09/11 19:04:33;;;;;;;11.85;9.15;;;;;22.00;96174.00;;;;8316435;28;20229;-68
2023/09/11 19:08:36;;;;;;;18.55;9.32;;;;;21.80;96175.00;;;;8318331;28;20202;-67
2023/09/11 19:12:40;;;;;;;16.55;8.90;;;;;21.70;96173.00;;;;8314859;28;20662;-67
2023/09/11 19:16:49;;;;;;;12.27;9.65;;;;;21.60;96167.00;;;;8313141;28;20264;-67
2023/09/11 19:20:53;;;;;;;18.30;9.85;;;;;21.40;96163.00;;;;8306669;28;20208;-67
2023/09/11 19:24:59;;;;;;;12.05;8.80;;;;;21.30;96171.00;;;;8314168;28;20228;-67
2023/09/11 19:29:03;;;;;;;12.07;8.82;;;;;21.20;96173.00;;;;8316871;28;20308;-67
2023/09/11 19:33:07;;;;;;;15.98;9.38;;;;;21.10;96175.00;;;;8315447;28;20285;-67
2023/09/11 19:37:11;;;;;;;12.55;8.57;;;;;21.10;96175.00;;;;8315622;28;20202;-67
2023/09/11 19:41:17;;;;;;;19.13;9.90;;;;;21.00;96173.00;;;;8316975;28;20216;-67
2023/09/11 19:45:23;;;;;;;11.20;8.52;;;;;20.90;96163.00;;;;8310615;28;20209;-67
2023/09/11 19:49:34;;;;;;;14.30;9.10;;;;;20.70;96165.00;;;;8297457;28;20202;-68
2023/09/11 19:53:40;;;;;;;14.88;9.32;;;;;20.60;96164.00;;;;8316431;28;20225;-68
2023/09/11 19:57:48;;;;;;;13.40;9.25;;;;;20.60;96165.00;;;;8315888;28;20534;-68
2023/09/11 20:01:51;;;;;;;13.52;8.90;;;;;20.50;96161.00;;;;8292872;28;20204;-68
2023/09/11 20:05:57;;;;;;;12.20;9.55;;;;;20.50;96156.00;;;;8316860;28;20221;-68
2023/09/11 20:10:03;;;;;;;15.90;9.40;;;;;20.40;96153.00;;;;8317363;28;20631;-68
2023/09/11 20:14:07;;;;;;;14.30;9.32;;;;;20.30;96149.00;;;;8315881;28;20252;-68
2023/09/11 20:18:10;;;;;;;20.05;10.13;;;;;20.30;96158.00;;;;8317253;28;20300;-68